Aérodrome :
LOGIN :

S'inscrire | Disclaimer

   EN    FR    IT 

 










Légende :    VFR   VFR Marginal   IFR   IFR Intensif   IFR Très Intensif
Visi : 
Plafond : 
>= 8 km
>= 3000ft
5 à 8 km
1000 à 3000 ft
1500m à 5 km
500 à 1000 ft
800 à 1500m
200 à 500 ft
< 800m
< 200 ft
Symboles :   Orages  Brouillard  Fortes neiges  Fortes précipitations  Vent > 20 kt
SIGMETs :   Divers  Orages  Givrage  Turbulence  Onde Orograph.  Cendres Volcan.







- Altitude de l'aérodrome : 286 ft
- Code IATA : TRF


ENTO - Sandefjord , Torp

DERNIER METAR :
  • 221150Z 36008KT 1600 SN VV004 M03/M03 Q0998

METARs EXPIRÉS :
  • 221120Z 03006KT 1300 R18/P2000N R36/1900D -SN VV003 M01/M01 Q0998
  • 221050Z 04004KT 010V080 1100 R18/1700N R36/1600N SN VV004 M00/M00 Q0999
  • 221020Z 05005KT 020V110 1100 R18/1600N R36/1700U SN VV004 M00/M00 Q0999
  • 220950Z 04004KT 360V110 1600 SN VV006 M00/M00 Q1000

TAF TAF ENTO
Valide du 22 à 12h jusqu'au 23 à 12h UTC


2212/2312 03008KT 4000 -RASN VV010
TEMPO 2212/2217 0800 SNRA VV002
PROB30 2215/2217 FZRA
BECMG 2217/2219 8000 -RA BKN012
TEMPO 2217/2304 4000 RA BR OVC006
BECMG 2221/2222 19015G25KT
TEMPO 2222/2312 19025G35KT
Pas de NOTAMs connus pour ce terrain.
11 SIGMETs publiés pour la FIR Norway (ENOR) :
 
Onde orographique forte
ENSV SIGMET B06 VALID 221300/221500 ENVV
ENOR NORWAY FIR OCNL SEV MTW FCST WI N6000 E00730 - N6010 E00610 - N6145 E00505 - N6200 E00530 - N6200 E00730 - N6000 E00730 SFC/FL140 STNR NC=
Onde orographique forte
ENSV SIGMET B05 VALID 221100/221300 ENVV
ENOR NORWAY FIR OCNL SEV MTW FCST WI N5900 E00730 - N5925 E00535 - N6120 E00515 - N6200 E00530 - N6200 E00730 - N5900 E00730 SFC/FL140 STNR NC=
Givrage fort avec pluie surfondue
ENSV SIGMET B04 VALID 221100/221500 ENVV
ENOR NORWAY FIR OCNL SEV ICE (FZRA) FCST WI N5800 E00730 - N5900 E00600 - N6000 E00540 - N5930 E00730 - N5800 E00730 SFC/FL050 STNR NC=
Givrage fort avec pluie surfondue
ENOS SIGMET A04 VALID 221300/221500 ENMI
ENOR NORWAY FIR OCNL SEV ICE (FZRA) FCST WI N5840 E00910 - N5815 E00730 - N5900 E00730 - N5900 E00900 - N5840 E00910 SFC/4000FT MOV NE INTSF=
Onde orographique forte
ENOS SIGMET A03 VALID 221300/221700 ENMI
ENOR NORWAY FIR OCNL SEV MTW FCST WI N6200 E00730 - N6200 E00915 - N6050 E00730 - N6200 E00730 SFC/FL120 STNR NC=
Onde orographique forte
ENOS SIGMET A02 VALID 220900/221300 ENMI
ENOR NORWAY FIR OCNL SEV MTW FCST WI N6200 E00730 - N6200 E00915 - N6030 E00730 - N6200 E00730 SFC/FL120 STNR NC=
Onde orographique forte
ENBD SIGMET D03 VALID 221200/221600 ENVN
ENOR NORWAY FIR SEV MTW FCST WI N6900 E01630 - N6900 E01900 - N6500 E01410 - N6500 E01030 - N6900 E01630 SFC/FL150 STNR INTSF=
Onde orographique forte
ENBD SIGMET D02 VALID 220800/221200 ENVN
ENOR NORWAY FIR OCNL SEV MTW FCST WI N6820 E01600 - N6820 E01800 - N6500 E01410 - N6500 E01115 - N6820 E01600 SFC/FL150 STNR INTSF=
Annulation du SIGMET C0
ENBD SIGMET C04 VALID 220951/221300 ENVV
ENOR NORWAY FIR CNL SIGMET C02 220900/221300=
Onde orographique forte
ENBD SIGMET C03 VALID 220950/221300 ENVV
ENOR NORWAY FIR OCNL SEV MTW FCST WI N6200 E00530 - N6345 E00930 - N6500 E01115 - N6500 E01410 - N6340 E01330 - N6200 E00915 - N6200 E00530 SFC/FL130 STNR NC=
Onde orographique forte
ENBD SIGMET C02 VALID 220900/221300 ENVV
ENOR NORWAY FIR OCNL SEV MTW FCST WI N6200 E00530 - N6300 E00800 - N6300 E01130 - N6200 E00915 - N6200 E00530 SFC/FL130 STNR NC=



MET'MAP, la Météo Aéronautique d'un coup d'oeil ! - Copyright ORBIFLY Décembre 2007 - Disclaimer

ORBIFLY MET'MAP TEAM :

Programmation & Développement : Alexandra Zaïnal
Conception & Développement : Baudouin d'Aumeries
Co-Programmation & Développement : Marc-Olivier Méhu
Soutien technique & logistique : Manuel Goepfert

Contact : metmap@orbifly.com




SOURCES & CREDITS :

   NOAA